Terminal Aerodrome Forecast
Issued by NWS

Home | Current Version | Previous Version | Text Only | Print | Product List | Glossary On
Versions: 1 2 3 4 5 6 7 8 9 10 11 12 13 14 15 16 17 18 19 20
000
FTUS41 KBGM 301458 AAA
TAFITH
TAF AMD
KITH 301458Z 3015/3112 20009KT P6SM SCT025
      TEMPO 3015/3018 BKN025
     FM301800 19012KT P6SM -SHRA BKN040 BKN100
      TEMPO 3020/3024 4SM TSRA BR BKN040CB
     FM310500 33012KT 4SM SHRA BR OVC015
      TEMPO 3108/3112 OVC009=

USA.gov is the U.S. government's official web portal to all federal, state and local government web resources and services.